sensor_id;sensor_type;location;lat;lon;timestamp;P1;durP1;ratioP1;P2;durP2;ratioP2
11735;SDS011;5924;51.398;7.088;2023-03-21T00:00:34;11.47;;;5.23;;
11735;SDS011;5924;51.398;7.088;2023-03-21T00:03:00;16.37;;;6.40;;
11735;SDS011;5924;51.398;7.088;2023-03-21T00:05:26;8.47;;;5.63;;
11735;SDS011;5924;51.398;7.088;2023-03-21T00:07:52;14.90;;;5.50;;
11735;SDS011;5924;51.398;7.088;2023-03-21T00:10:18;11.80;;;5.70;;
11735;SDS011;5924;51.398;7.088;2023-03-21T00:12:43;15.53;;;6.40;;
11735;SDS011;5924;51.398;7.088;2023-03-21T00:15:09;12.77;;;5.00;;
11735;SDS011;5924;51.398;7.088;2023-03-21T00:17:36;10.43;;;5.23;;
11735;SDS011;5924;51.398;7.088;2023-03-21T00:20:04;14.10;;;6.00;;
11735;SDS011;5924;51.398;7.088;2023-03-21T00:22:33;12.40;;;6.30;;
11735;SDS011;5924;51.398;7.088;2023-03-21T00:24:59;16.97;;;6.10;;
11735;SDS011;5924;51.398;7.088;2023-03-21T00:27:25;13.57;;;5.60;;
11735;SDS011;5924;51.398;7.088;2023-03-21T00:29:51;8.20;;;5.40;;
11735;SDS011;5924;51.398;7.088;2023-03-21T00:32:18;13.23;;;5.60;;
11735;SDS011;5924;51.398;7.088;2023-03-21T00:34:44;12.23;;;5.63;;
11735;SDS011;5924;51.398;7.088;2023-03-21T00:37:10;14.60;;;5.07;;
11735;SDS011;5924;51.398;7.088;2023-03-21T00:39:38;11.77;;;5.30;;
11735;SDS011;5924;51.398;7.088;2023-03-21T00:42:04;9.27;;;5.30;;
11735;SDS011;5924;51.398;7.088;2023-03-21T00:44:30;5.70;;;4.57;;
11735;SDS011;5924;51.398;7.088;2023-03-21T00:47:03;11.70;;;5.20;;
11735;SDS011;5924;51.398;7.088;2023-03-21T00:49:29;9.57;;;5.10;;
11735;SDS011;5924;51.398;7.088;2023-03-21T00:51:58;6.30;;;5.47;;
11735;SDS011;5924;51.398;7.088;2023-03-21T00:54:24;12.10;;;5.33;;
11735;SDS011;5924;51.398;7.088;2023-03-21T00:56:51;7.90;;;5.13;;
11735;SDS011;5924;51.398;7.088;2023-03-21T00:59:17;17.43;;;6.70;;
11735;SDS011;5924;51.398;7.088;2023-03-21T01:01:42;13.97;;;6.17;;
11735;SDS011;5924;51.398;7.088;2023-03-21T01:04:10;14.27;;;5.23;;
11735;SDS011;5924;51.398;7.088;2023-03-21T01:06:38;10.53;;;5.27;;
11735;SDS011;5924;51.398;7.088;2023-03-21T01:09:06;12.20;;;5.83;;
11735;SDS011;5924;51.398;7.088;2023-03-21T01:11:35;12.83;;;5.27;;
11735;SDS011;5924;51.398;7.088;2023-03-21T01:14:01;10.97;;;5.70;;
11735;SDS011;5924;51.398;7.088;2023-03-21T01:16:26;15.47;;;6.70;;
11735;SDS011;5924;51.398;7.088;2023-03-21T01:18:52;11.40;;;6.00;;
11735;SDS011;5924;51.398;7.088;2023-03-21T01:21:18;14.07;;;6.77;;
11735;SDS011;5924;51.398;7.088;2023-03-21T01:23:44;16.20;;;7.53;;
11735;SDS011;5924;51.398;7.088;2023-03-21T01:26:10;15.80;;;6.70;;
11735;SDS011;5924;51.398;7.088;2023-03-21T01:28:38;8.67;;;6.50;;
11735;SDS011;5924;51.398;7.088;2023-03-21T01:31:04;13.83;;;6.70;;
11735;SDS011;5924;51.398;7.088;2023-03-21T01:33:31;13.00;;;7.13;;
11735;SDS011;5924;51.398;7.088;2023-03-21T01:35:57;11.33;;;6.80;;
11735;SDS011;5924;51.398;7.088;2023-03-21T01:38:24;17.23;;;7.17;;
11735;SDS011;5924;51.398;7.088;2023-03-21T01:40:50;19.83;;;8.00;;
11735;SDS011;5924;51.398;7.088;2023-03-21T01:43:24;14.20;;;7.67;;
11735;SDS011;5924;51.398;7.088;2023-03-21T01:46:11;16.93;;;7.60;;
11735;SDS011;5924;51.398;7.088;2023-03-21T01:48:52;15.60;;;7.60;;
11735;SDS011;5924;51.398;7.088;2023-03-21T01:51:22;13.53;;;8.20;;
11735;SDS011;5924;51.398;7.088;2023-03-21T01:53:50;16.33;;;8.33;;
11735;SDS011;5924;51.398;7.088;2023-03-21T01:56:26;18.70;;;7.00;;
11735;SDS011;5924;51.398;7.088;2023-03-21T01:59:01;20.63;;;8.10;;
11735;SDS011;5924;51.398;7.088;2023-03-21T02:01:32;21.07;;;7.93;;
11735;SDS011;5924;51.398;7.088;2023-03-21T02:03:59;17.23;;;7.27;;
11735;SDS011;5924;51.398;7.088;2023-03-21T02:06:35;11.90;;;7.60;;
11735;SDS011;5924;51.398;7.088;2023-03-21T02:09:09;13.57;;;7.50;;
11735;SDS011;5924;51.398;7.088;2023-03-21T02:11:38;15.53;;;7.90;;
11735;SDS011;5924;51.398;7.088;2023-03-21T02:14:05;12.43;;;7.57;;
11735;SDS011;5924;51.398;7.088;2023-03-21T02:16:43;12.03;;;6.90;;
11735;SDS011;5924;51.398;7.088;2023-03-21T02:38:58;21.93;;;8.93;;
11735;SDS011;5924;51.398;7.088;2023-03-21T02:41:47;15.83;;;8.37;;
11735;SDS011;5924;51.398;7.088;2023-03-21T02:47:04;18.67;;;9.40;;
11735;SDS011;5924;51.398;7.088;2023-03-21T02:49:38;17.23;;;9.47;;
11735;SDS011;5924;51.398;7.088;2023-03-21T02:52:16;14.30;;;9.00;;
11735;SDS011;5924;51.398;7.088;2023-03-21T02:54:45;16.10;;;7.90;;
11735;SDS011;5924;51.398;7.088;2023-03-21T02:57:12;18.53;;;8.47;;
11735;SDS011;5924;51.398;7.088;2023-03-21T02:59:40;22.57;;;9.00;;
11735;SDS011;5924;51.398;7.088;2023-03-21T03:02:07;27.17;;;10.03;;
11735;SDS011;5924;51.398;7.088;2023-03-21T03:04:33;18.00;;;7.83;;
11735;SDS011;5924;51.398;7.088;2023-03-21T03:15:26;13.57;;;9.30;;
11735;SDS011;5924;51.398;7.088;2023-03-21T03:20:56;14.53;;;8.10;;
11735;SDS011;5924;51.398;7.088;2023-03-21T03:26:12;10.63;;;7.60;;
11735;SDS011;5924;51.398;7.088;2023-03-21T03:28:43;11.63;;;7.40;;
11735;SDS011;5924;51.398;7.088;2023-03-21T03:31:13;21.77;;;7.80;;
11735;SDS011;5924;51.398;7.088;2023-03-21T03:33:45;10.47;;;7.80;;
11735;SDS011;5924;51.398;7.088;2023-03-21T03:36:15;9.17;;;6.90;;
11735;SDS011;5924;51.398;7.088;2023-03-21T03:38:45;16.47;;;7.70;;
11735;SDS011;5924;51.398;7.088;2023-03-21T03:41:18;15.07;;;7.33;;
11735;SDS011;5924;51.398;7.088;2023-03-21T03:43:51;11.67;;;7.50;;
11735;SDS011;5924;51.398;7.088;2023-03-21T03:48:54;21.20;;;9.13;;
11735;SDS011;5924;51.398;7.088;2023-03-21T03:51:28;15.53;;;7.90;;
11735;SDS011;5924;51.398;7.088;2023-03-21T03:54:05;23.67;;;8.80;;
11735;SDS011;5924;51.398;7.088;2023-03-21T03:56:35;13.23;;;7.40;;
11735;SDS011;5924;51.398;7.088;2023-03-21T03:59:03;16.17;;;7.80;;
11735;SDS011;5924;51.398;7.088;2023-03-21T04:01:29;26.17;;;8.27;;
11735;SDS011;5924;51.398;7.088;2023-03-21T04:03:55;18.03;;;7.77;;
11735;SDS011;5924;51.398;7.088;2023-03-21T04:06:20;8.30;;;7.00;;
11735;SDS011;5924;51.398;7.088;2023-03-21T04:08:46;10.90;;;7.20;;
11735;SDS011;5924;51.398;7.088;2023-03-21T04:11:13;17.00;;;7.43;;
11735;SDS011;5924;51.398;7.088;2023-03-21T04:13:40;17.23;;;7.40;;
11735;SDS011;5924;51.398;7.088;2023-03-21T04:16:06;16.20;;;7.07;;
11735;SDS011;5924;51.398;7.088;2023-03-21T04:18:33;14.53;;;7.53;;
11735;SDS011;5924;51.398;7.088;2023-03-21T04:20:58;16.13;;;7.63;;
11735;SDS011;5924;51.398;7.088;2023-03-21T04:23:25;17.43;;;7.60;;
11735;SDS011;5924;51.398;7.088;2023-03-21T04:25:53;18.40;;;8.70;;
11735;SDS011;5924;51.398;7.088;2023-03-21T04:28:18;12.57;;;7.40;;
11735;SDS011;5924;51.398;7.088;2023-03-21T04:30:46;10.97;;;7.80;;
11735;SDS011;5924;51.398;7.088;2023-03-21T04:33:13;12.83;;;7.40;;
11735;SDS011;5924;51.398;7.088;2023-03-21T04:35:39;22.00;;;8.07;;
11735;SDS011;5924;51.398;7.088;2023-03-21T04:38:06;21.33;;;7.60;;
11735;SDS011;5924;51.398;7.088;2023-03-21T04:40:32;18.13;;;7.90;;
11735;SDS011;5924;51.398;7.088;2023-03-21T04:42:57;10.53;;;7.83;;
11735;SDS011;5924;51.398;7.088;2023-03-21T04:45:25;20.63;;;8.13;;
11735;SDS011;5924;51.398;7.088;2023-03-21T04:47:51;17.20;;;8.20;;
11735;SDS011;5924;51.398;7.088;2023-03-21T04:50:16;15.37;;;8.20;;
11735;SDS011;5924;51.398;7.088;2023-03-21T04:52:42;10.40;;;7.60;;
11735;SDS011;5924;51.398;7.088;2023-03-21T04:55:07;14.87;;;7.80;;
11735;SDS011;5924;51.398;7.088;2023-03-21T04:57:34;14.00;;;8.87;;
11735;SDS011;5924;51.398;7.088;2023-03-21T05:00:04;21.57;;;9.23;;
11735;SDS011;5924;51.398;7.088;2023-03-21T05:02:34;16.00;;;8.00;;
11735;SDS011;5924;51.398;7.088;2023-03-21T05:05:00;16.23;;;7.83;;
11735;SDS011;5924;51.398;7.088;2023-03-21T05:07:26;15.87;;;7.20;;
11735;SDS011;5924;51.398;7.088;2023-03-21T05:09:51;18.13;;;8.00;;
11735;SDS011;5924;51.398;7.088;2023-03-21T05:12:17;16.40;;;7.30;;
11735;SDS011;5924;51.398;7.088;2023-03-21T05:14:43;28.67;;;9.70;;
11735;SDS011;5924;51.398;7.088;2023-03-21T05:17:09;10.17;;;6.87;;
11735;SDS011;5924;51.398;7.088;2023-03-21T05:19:39;11.37;;;7.07;;
11735;SDS011;5924;51.398;7.088;2023-03-21T05:22:06;12.47;;;7.10;;
11735;SDS011;5924;51.398;7.088;2023-03-21T05:24:34;15.20;;;6.93;;
11735;SDS011;5924;51.398;7.088;2023-03-21T05:27:03;13.67;;;7.90;;
11735;SDS011;5924;51.398;7.088;2023-03-21T05:29:29;13.90;;;6.70;;
11735;SDS011;5924;51.398;7.088;2023-03-21T05:31:56;14.13;;;7.20;;
11735;SDS011;5924;51.398;7.088;2023-03-21T05:34:23;24.77;;;7.97;;
11735;SDS011;5924;51.398;7.088;2023-03-21T05:36:50;16.03;;;6.63;;
11735;SDS011;5924;51.398;7.088;2023-03-21T05:39:16;13.73;;;6.63;;
11735;SDS011;5924;51.398;7.088;2023-03-21T05:41:42;15.70;;;7.30;;
11735;SDS011;5924;51.398;7.088;2023-03-21T05:44:08;10.30;;;6.80;;
11735;SDS011;5924;51.398;7.088;2023-03-21T05:46:34;22.97;;;8.87;;
11735;SDS011;5924;51.398;7.088;2023-03-21T05:49:00;14.73;;;7.87;;
11735;SDS011;5924;51.398;7.088;2023-03-21T05:51:25;20.80;;;8.57;;
11735;SDS011;5924;51.398;7.088;2023-03-21T05:53:51;13.97;;;7.77;;
11735;SDS011;5924;51.398;7.088;2023-03-21T05:56:17;17.80;;;7.93;;
11735;SDS011;5924;51.398;7.088;2023-03-21T05:58:42;25.50;;;10.50;;
11735;SDS011;5924;51.398;7.088;2023-03-21T06:01:08;18.87;;;9.40;;
11735;SDS011;5924;51.398;7.088;2023-03-21T06:03:34;14.90;;;7.80;;
11735;SDS011;5924;51.398;7.088;2023-03-21T06:06:00;17.73;;;7.87;;
11735;SDS011;5924;51.398;7.088;2023-03-21T06:08:27;19.83;;;7.70;;
11735;SDS011;5924;51.398;7.088;2023-03-21T06:10:53;10.50;;;6.80;;
11735;SDS011;5924;51.398;7.088;2023-03-21T06:13:19;10.03;;;5.77;;
11735;SDS011;5924;51.398;7.088;2023-03-21T06:15:45;16.47;;;6.60;;
11735;SDS011;5924;51.398;7.088;2023-03-21T06:18:11;14.27;;;6.80;;
11735;SDS011;5924;51.398;7.088;2023-03-21T06:20:37;11.90;;;6.50;;
11735;SDS011;5924;51.398;7.088;2023-03-21T06:23:02;13.33;;;6.73;;
11735;SDS011;5924;51.398;7.088;2023-03-21T06:25:28;20.70;;;6.93;;
11735;SDS011;5924;51.398;7.088;2023-03-21T06:27:54;14.60;;;6.33;;
11735;SDS011;5924;51.398;7.088;2023-03-21T06:30:19;21.27;;;7.07;;
11735;SDS011;5924;51.398;7.088;2023-03-21T06:32:45;6.67;;;5.97;;
11735;SDS011;5924;51.398;7.088;2023-03-21T06:35:11;12.83;;;5.40;;
11735;SDS011;5924;51.398;7.088;2023-03-21T06:37:36;16.57;;;6.57;;
11735;SDS011;5924;51.398;7.088;2023-03-21T06:40:02;10.60;;;6.73;;
11735;SDS011;5924;51.398;7.088;2023-03-21T06:42:29;13.37;;;6.77;;
11735;SDS011;5924;51.398;7.088;2023-03-21T06:44:56;9.77;;;5.77;;
11735;SDS011;5924;51.398;7.088;2023-03-21T06:47:22;7.70;;;6.10;;
11735;SDS011;5924;51.398;7.088;2023-03-21T06:49:47;10.23;;;7.33;;
11735;SDS011;5924;51.398;7.088;2023-03-21T06:52:13;7.87;;;6.57;;
11735;SDS011;5924;51.398;7.088;2023-03-21T06:54:39;8.53;;;6.30;;
11735;SDS011;5924;51.398;7.088;2023-03-21T06:57:04;14.17;;;6.00;;
11735;SDS011;5924;51.398;7.088;2023-03-21T06:59:30;11.43;;;6.27;;
11735;SDS011;5924;51.398;7.088;2023-03-21T07:01:56;10.87;;;6.03;;
11735;SDS011;5924;51.398;7.088;2023-03-21T07:04:22;16.30;;;6.40;;
11735;SDS011;5924;51.398;7.088;2023-03-21T07:06:48;15.00;;;6.80;;
11735;SDS011;5924;51.398;7.088;2023-03-21T07:09:13;15.17;;;6.73;;
11735;SDS011;5924;51.398;7.088;2023-03-21T07:11:41;12.00;;;6.70;;
11735;SDS011;5924;51.398;7.088;2023-03-21T07:14:07;12.03;;;7.10;;
11735;SDS011;5924;51.398;7.088;2023-03-21T07:16:33;10.50;;;6.27;;
11735;SDS011;5924;51.398;7.088;2023-03-21T07:18:58;22.47;;;7.70;;
11735;SDS011;5924;51.398;7.088;2023-03-21T07:21:24;21.60;;;8.10;;
11735;SDS011;5924;51.398;7.088;2023-03-21T07:23:50;22.93;;;7.53;;
11735;SDS011;5924;51.398;7.088;2023-03-21T07:26:16;13.33;;;7.30;;
11735;SDS011;5924;51.398;7.088;2023-03-21T07:28:42;15.13;;;8.00;;
11735;SDS011;5924;51.398;7.088;2023-03-21T07:31:11;19.00;;;7.07;;
11735;SDS011;5924;51.398;7.088;2023-03-21T07:33:38;22.83;;;7.03;;
11735;SDS011;5924;51.398;7.088;2023-03-21T07:36:07;9.63;;;6.07;;
11735;SDS011;5924;51.398;7.088;2023-03-21T07:38:36;23.33;;;6.53;;
11735;SDS011;5924;51.398;7.088;2023-03-21T07:41:02;17.50;;;8.27;;
11735;SDS011;5924;51.398;7.088;2023-03-21T07:43:27;13.73;;;7.63;;
11735;SDS011;5924;51.398;7.088;2023-03-21T07:45:56;10.43;;;5.70;;
11735;SDS011;5924;51.398;7.088;2023-03-21T07:48:22;15.13;;;7.53;;
11735;SDS011;5924;51.398;7.088;2023-03-21T07:50:48;14.90;;;7.10;;
11735;SDS011;5924;51.398;7.088;2023-03-21T07:53:15;14.13;;;6.60;;
11735;SDS011;5924;51.398;7.088;2023-03-21T07:55:40;13.93;;;7.60;;
11735;SDS011;5924;51.398;7.088;2023-03-21T07:58:06;13.90;;;7.33;;
11735;SDS011;5924;51.398;7.088;2023-03-21T08:00:31;6.83;;;5.70;;
11735;SDS011;5924;51.398;7.088;2023-03-21T08:02:58;8.73;;;6.27;;
11735;SDS011;5924;51.398;7.088;2023-03-21T08:05:28;16.23;;;7.53;;
11735;SDS011;5924;51.398;7.088;2023-03-21T08:07:57;15.43;;;6.80;;
11735;SDS011;5924;51.398;7.088;2023-03-21T08:10:24;10.60;;;6.73;;
11735;SDS011;5924;51.398;7.088;2023-03-21T08:12:50;13.77;;;7.13;;
11735;SDS011;5924;51.398;7.088;2023-03-21T08:15:16;15.30;;;7.30;;
11735;SDS011;5924;51.398;7.088;2023-03-21T08:17:41;11.37;;;6.83;;
11735;SDS011;5924;51.398;7.088;2023-03-21T08:20:10;16.43;;;8.57;;
11735;SDS011;5924;51.398;7.088;2023-03-21T08:22:39;12.93;;;6.97;;
11735;SDS011;5924;51.398;7.088;2023-03-21T08:25:06;16.93;;;7.63;;
11735;SDS011;5924;51.398;7.088;2023-03-21T08:27:34;8.73;;;6.83;;
11735;SDS011;5924;51.398;7.088;2023-03-21T08:30:00;12.43;;;6.37;;
11735;SDS011;5924;51.398;7.088;2023-03-21T08:32:26;9.37;;;6.90;;
11735;SDS011;5924;51.398;7.088;2023-03-21T08:35:00;22.37;;;7.53;;
11735;SDS011;5924;51.398;7.088;2023-03-21T08:37:28;8.77;;;6.10;;
11735;SDS011;5924;51.398;7.088;2023-03-21T08:39:53;16.23;;;8.20;;
11735;SDS011;5924;51.398;7.088;2023-03-21T08:42:19;19.60;;;8.83;;
11735;SDS011;5924;51.398;7.088;2023-03-21T08:44:46;16.90;;;8.30;;
11735;SDS011;5924;51.398;7.088;2023-03-21T08:47:11;17.33;;;7.53;;
11735;SDS011;5924;51.398;7.088;2023-03-21T08:49:37;13.87;;;6.90;;
11735;SDS011;5924;51.398;7.088;2023-03-21T08:52:03;15.10;;;8.73;;
11735;SDS011;5924;51.398;7.088;2023-03-21T08:54:30;17.47;;;8.70;;
11735;SDS011;5924;51.398;7.088;2023-03-21T08:56:56;19.90;;;8.93;;
11735;SDS011;5924;51.398;7.088;2023-03-21T08:59:22;20.13;;;9.17;;
11735;SDS011;5924;51.398;7.088;2023-03-21T09:01:47;17.10;;;8.90;;
11735;SDS011;5924;51.398;7.088;2023-03-21T09:04:13;19.33;;;9.63;;
11735;SDS011;5924;51.398;7.088;2023-03-21T09:06:39;17.73;;;8.07;;
11735;SDS011;5924;51.398;7.088;2023-03-21T09:09:12;16.73;;;8.53;;
11735;SDS011;5924;51.398;7.088;2023-03-21T09:11:38;12.83;;;8.20;;
11735;SDS011;5924;51.398;7.088;2023-03-21T09:14:04;14.97;;;7.40;;
11735;SDS011;5924;51.398;7.088;2023-03-21T09:16:29;14.17;;;8.07;;
11735;SDS011;5924;51.398;7.088;2023-03-21T09:18:55;12.50;;;7.73;;
11735;SDS011;5924;51.398;7.088;2023-03-21T09:21:23;15.57;;;8.00;;
11735;SDS011;5924;51.398;7.088;2023-03-21T09:23:51;19.70;;;7.50;;
11735;SDS011;5924;51.398;7.088;2023-03-21T09:26:20;21.13;;;7.60;;
11735;SDS011;5924;51.398;7.088;2023-03-21T09:28:47;14.77;;;7.83;;
11735;SDS011;5924;51.398;7.088;2023-03-21T09:31:13;10.13;;;7.27;;
11735;SDS011;5924;51.398;7.088;2023-03-21T09:33:45;15.67;;;8.23;;
11735;SDS011;5924;51.398;7.088;2023-03-21T09:36:11;12.50;;;8.13;;
11735;SDS011;5924;51.398;7.088;2023-03-21T09:38:43;17.97;;;7.47;;
11735;SDS011;5924;51.398;7.088;2023-03-21T09:44:35;7.30;;;5.63;;
11735;SDS011;5924;51.398;7.088;2023-03-21T09:49:24;11.13;;;5.97;;
11735;SDS011;5924;51.398;7.088;2023-03-21T09:51:55;9.00;;;6.07;;
11735;SDS011;5924;51.398;7.088;2023-03-21T09:54:25;11.83;;;6.30;;
11735;SDS011;5924;51.398;7.088;2023-03-21T09:56:54;10.53;;;7.00;;
11735;SDS011;5924;51.398;7.088;2023-03-21T09:59:40;9.80;;;5.80;;
11735;SDS011;5924;51.398;7.088;2023-03-21T10:02:40;8.83;;;5.43;;
11735;SDS011;5924;51.398;7.088;2023-03-21T10:05:22;10.67;;;5.17;;
11735;SDS011;5924;51.398;7.088;2023-03-21T10:08:12;11.83;;;5.40;;
11735;SDS011;5924;51.398;7.088;2023-03-21T10:10:46;5.00;;;4.27;;
11735;SDS011;5924;51.398;7.088;2023-03-21T10:13:25;6.90;;;4.73;;
11735;SDS011;5924;51.398;7.088;2023-03-21T10:15:56;13.50;;;4.70;;
11735;SDS011;5924;51.398;7.088;2023-03-21T10:18:25;11.23;;;5.40;;
11735;SDS011;5924;51.398;7.088;2023-03-21T10:20:54;6.20;;;4.17;;
11735;SDS011;5924;51.398;7.088;2023-03-21T10:23:21;6.30;;;5.40;;
11735;SDS011;5924;51.398;7.088;2023-03-21T10:25:53;10.40;;;4.00;;
11735;SDS011;5924;51.398;7.088;2023-03-21T10:28:29;9.00;;;4.30;;
11735;SDS011;5924;51.398;7.088;2023-03-21T10:31:06;4.60;;;3.10;;
11735;SDS011;5924;51.398;7.088;2023-03-21T10:33:42;17.50;;;4.63;;
11735;SDS011;5924;51.398;7.088;2023-03-21T10:36:12;11.53;;;5.30;;
11735;SDS011;5924;51.398;7.088;2023-03-21T10:38:46;7.30;;;4.53;;
11735;SDS011;5924;51.398;7.088;2023-03-21T10:41:17;10.10;;;4.70;;
11735;SDS011;5924;51.398;7.088;2023-03-21T10:43:45;9.30;;;5.03;;
11735;SDS011;5924;51.398;7.088;2023-03-21T10:46:16;22.17;;;5.90;;
11735;SDS011;5924;51.398;7.088;2023-03-21T10:48:48;19.47;;;6.70;;
11735;SDS011;5924;51.398;7.088;2023-03-21T10:51:20;26.63;;;7.50;;
11735;SDS011;5924;51.398;7.088;2023-03-21T10:53:50;20.23;;;6.67;;
11735;SDS011;5924;51.398;7.088;2023-03-21T10:56:27;4.00;;;3.80;;
11735;SDS011;5924;51.398;7.088;2023-03-21T10:58:57;16.20;;;5.73;;
11735;SDS011;5924;51.398;7.088;2023-03-21T11:01:28;8.73;;;4.50;;
11735;SDS011;5924;51.398;7.088;2023-03-21T11:04:07;6.90;;;4.53;;
11735;SDS011;5924;51.398;7.088;2023-03-21T11:06:38;5.13;;;4.13;;
11735;SDS011;5924;51.398;7.088;2023-03-21T11:09:07;6.23;;;3.63;;
11735;SDS011;5924;51.398;7.088;2023-03-21T11:11:39;8.63;;;3.47;;
11735;SDS011;5924;51.398;7.088;2023-03-21T11:14:29;12.10;;;4.77;;
11735;SDS011;5924;51.398;7.088;2023-03-21T11:22:22;5.67;;;4.47;;
11735;SDS011;5924;51.398;7.088;2023-03-21T11:25:01;10.00;;;4.40;;
11735;SDS011;5924;51.398;7.088;2023-03-21T11:27:31;13.23;;;4.23;;
11735;SDS011;5924;51.398;7.088;2023-03-21T11:29:57;9.40;;;4.67;;
11735;SDS011;5924;51.398;7.088;2023-03-21T11:32:34;4.70;;;3.20;;
11735;SDS011;5924;51.398;7.088;2023-03-21T11:37:44;3.40;;;3.10;;
11735;SDS011;5924;51.398;7.088;2023-03-21T11:42:54;4.97;;;3.00;;
11735;SDS011;5924;51.398;7.088;2023-03-21T11:47:51;4.00;;;3.07;;
11735;SDS011;5924;51.398;7.088;2023-03-21T11:55:40;5.10;;;3.13;;
11735;SDS011;5924;51.398;7.088;2023-03-21T12:03:58;5.57;;;3.10;;
11735;SDS011;5924;51.398;7.088;2023-03-21T12:06:37;7.77;;;4.07;;
11735;SDS011;5924;51.398;7.088;2023-03-21T12:09:46;6.90;;;3.33;;
11735;SDS011;5924;51.398;7.088;2023-03-21T12:15:09;5.80;;;3.00;;
11735;SDS011;5924;51.398;7.088;2023-03-21T12:23:22;5.30;;;2.90;;
11735;SDS011;5924;51.398;7.088;2023-03-21T12:26:04;3.27;;;3.07;;
11735;SDS011;5924;51.398;7.088;2023-03-21T12:39:26;4.77;;;2.40;;
11735;SDS011;5924;51.398;7.088;2023-03-21T12:45:18;3.53;;;3.33;;
11735;SDS011;5924;51.398;7.088;2023-03-21T12:47:50;5.33;;;2.90;;
11735;SDS011;5924;51.398;7.088;2023-03-21T12:50:33;3.27;;;3.00;;
11735;SDS011;5924;51.398;7.088;2023-03-21T12:56:10;3.90;;;3.60;;
11735;SDS011;5924;51.398;7.088;2023-03-21T12:59:05;4.70;;;2.97;;
11735;SDS011;5924;51.398;7.088;2023-03-21T13:01:51;5.67;;;3.77;;
11735;SDS011;5924;51.398;7.088;2023-03-21T13:04:26;6.53;;;3.47;;
11735;SDS011;5924;51.398;7.088;2023-03-21T13:07:11;4.73;;;3.53;;
11735;SDS011;5924;51.398;7.088;2023-03-21T13:09:41;4.03;;;3.40;;
11735;SDS011;5924;51.398;7.088;2023-03-21T13:12:20;7.27;;;2.80;;
11735;SDS011;5924;51.398;7.088;2023-03-21T13:17:26;5.50;;;3.00;;
11735;SDS011;5924;51.398;7.088;2023-03-21T13:20:08;4.10;;;3.23;;
11735;SDS011;5924;51.398;7.088;2023-03-21T13:22:55;6.13;;;3.53;;
11735;SDS011;5924;51.398;7.088;2023-03-21T13:25:21;3.17;;;2.93;;
11735;SDS011;5924;51.398;7.088;2023-03-21T13:27:52;4.23;;;3.30;;
11735;SDS011;5924;51.398;7.088;2023-03-21T13:30:25;3.30;;;3.00;;
11735;SDS011;5924;51.398;7.088;2023-03-21T13:33:03;3.03;;;2.33;;
11735;SDS011;5924;51.398;7.088;2023-03-21T13:35:37;5.00;;;2.90;;
11735;SDS011;5924;51.398;7.088;2023-03-21T13:43:21;5.60;;;2.80;;
11735;SDS011;5924;51.398;7.088;2023-03-21T13:45:56;7.13;;;2.77;;
11735;SDS011;5924;51.398;7.088;2023-03-21T13:48:31;2.90;;;2.70;;
11735;SDS011;5924;51.398;7.088;2023-03-21T13:51:36;7.20;;;3.33;;
11735;SDS011;5924;51.398;7.088;2023-03-21T13:59:56;3.30;;;3.00;;
11735;SDS011;5924;51.398;7.088;2023-03-21T14:05:02;5.53;;;3.70;;
11735;SDS011;5924;51.398;7.088;2023-03-21T14:07:41;8.93;;;3.00;;
11735;SDS011;5924;51.398;7.088;2023-03-21T14:12:45;4.97;;;2.90;;
11735;SDS011;5924;51.398;7.088;2023-03-21T14:15:14;8.23;;;3.53;;
11735;SDS011;5924;51.398;7.088;2023-03-21T14:20:22;15.60;;;6.20;;
11735;SDS011;5924;51.398;7.088;2023-03-21T14:22:52;13.47;;;5.70;;
11735;SDS011;5924;51.398;7.088;2023-03-21T14:25:19;12.30;;;5.30;;
11735;SDS011;5924;51.398;7.088;2023-03-21T14:27:56;6.13;;;4.20;;
11735;SDS011;5924;51.398;7.088;2023-03-21T14:30:25;5.33;;;3.67;;
11735;SDS011;5924;51.398;7.088;2023-03-21T14:32:56;3.60;;;3.37;;
11735;SDS011;5924;51.398;7.088;2023-03-21T14:35:27;10.70;;;4.83;;
11735;SDS011;5924;51.398;7.088;2023-03-21T14:37:55;7.80;;;3.67;;
11735;SDS011;5924;51.398;7.088;2023-03-21T14:40:26;3.63;;;3.47;;
11735;SDS011;5924;51.398;7.088;2023-03-21T14:42:53;9.50;;;5.47;;
11735;SDS011;5924;51.398;7.088;2023-03-21T14:47:56;6.77;;;4.03;;
11735;SDS011;5924;51.398;7.088;2023-03-21T14:51:09;3.77;;;3.47;;
11735;SDS011;5924;51.398;7.088;2023-03-21T14:53:15;5.87;;;4.00;;
11735;SDS011;5924;51.398;7.088;2023-03-21T14:58:22;5.13;;;4.63;;
11735;SDS011;5924;51.398;7.088;2023-03-21T15:00:49;9.20;;;3.50;;
11735;SDS011;5924;51.398;7.088;2023-03-21T15:03:18;15.00;;;5.70;;
11735;SDS011;5924;51.398;7.088;2023-03-21T15:05:45;11.57;;;5.33;;
11735;SDS011;5924;51.398;7.088;2023-03-21T15:08:16;3.60;;;3.33;;
11735;SDS011;5924;51.398;7.088;2023-03-21T15:10:59;4.97;;;3.67;;
11735;SDS011;5924;51.398;7.088;2023-03-21T15:13:30;5.20;;;3.43;;
11735;SDS011;5924;51.398;7.088;2023-03-21T15:16:14;16.73;;;4.57;;
11735;SDS011;5924;51.398;7.088;2023-03-21T15:18:39;9.53;;;5.43;;
11735;SDS011;5924;51.398;7.088;2023-03-21T15:21:10;5.10;;;3.93;;
11735;SDS011;5924;51.398;7.088;2023-03-21T15:23:44;4.87;;;4.47;;
11735;SDS011;5924;51.398;7.088;2023-03-21T15:26:16;3.37;;;3.27;;
11735;SDS011;5924;51.398;7.088;2023-03-21T15:28:44;3.10;;;2.90;;
11735;SDS011;5924;51.398;7.088;2023-03-21T15:31:16;5.30;;;2.87;;
11735;SDS011;5924;51.398;7.088;2023-03-21T15:33:44;4.27;;;3.80;;
11735;SDS011;5924;51.398;7.088;2023-03-21T15:36:27;2.60;;;2.50;;
11735;SDS011;5924;51.398;7.088;2023-03-21T15:39:01;4.33;;;2.60;;
11735;SDS011;5924;51.398;7.088;2023-03-21T15:41:30;4.23;;;3.00;;
11735;SDS011;5924;51.398;7.088;2023-03-21T15:46:47;3.03;;;2.93;;
11735;SDS011;5924;51.398;7.088;2023-03-21T15:49:17;4.00;;;3.07;;
11735;SDS011;5924;51.398;7.088;2023-03-21T15:52:02;4.60;;;4.20;;
11735;SDS011;5924;51.398;7.088;2023-03-21T15:57:23;2.97;;;2.77;;
11735;SDS011;5924;51.398;7.088;2023-03-21T16:00:03;4.67;;;3.00;;
11735;SDS011;5924;51.398;7.088;2023-03-21T16:02:39;3.50;;;3.20;;
11735;SDS011;5924;51.398;7.088;2023-03-21T16:08:03;2.90;;;2.67;;
11735;SDS011;5924;51.398;7.088;2023-03-21T16:10:33;2.50;;;2.30;;
11735;SDS011;5924;51.398;7.088;2023-03-21T16:13:02;3.13;;;2.93;;
11735;SDS011;5924;51.398;7.088;2023-03-21T16:15:29;3.27;;;3.07;;
11735;SDS011;5924;51.398;7.088;2023-03-21T16:17:56;3.90;;;3.60;;
11735;SDS011;5924;51.398;7.088;2023-03-21T16:20:24;4.57;;;3.93;;
11735;SDS011;5924;51.398;7.088;2023-03-21T16:22:58;4.03;;;3.67;;
11735;SDS011;5924;51.398;7.088;2023-03-21T16:25:23;3.47;;;3.27;;
11735;SDS011;5924;51.398;7.088;2023-03-21T16:27:49;3.77;;;3.47;;
11735;SDS011;5924;51.398;7.088;2023-03-21T16:30:17;11.53;;;3.67;;
11735;SDS011;5924;51.398;7.088;2023-03-21T16:32:45;3.10;;;2.90;;
11735;SDS011;5924;51.398;7.088;2023-03-21T16:35:11;4.00;;;3.70;;
11735;SDS011;5924;51.398;7.088;2023-03-21T16:37:37;4.23;;;3.93;;
11735;SDS011;5924;51.398;7.088;2023-03-21T16:40:08;3.97;;;3.77;;
11735;SDS011;5924;51.398;7.088;2023-03-21T16:42:41;6.00;;;3.13;;
11735;SDS011;5924;51.398;7.088;2023-03-21T16:45:08;4.87;;;3.50;;
11735;SDS011;5924;51.398;7.088;2023-03-21T16:47:35;5.80;;;3.50;;
11735;SDS011;5924;51.398;7.088;2023-03-21T16:50:00;3.60;;;3.30;;
11735;SDS011;5924;51.398;7.088;2023-03-21T16:52:26;3.43;;;3.23;;
11735;SDS011;5924;51.398;7.088;2023-03-21T16:54:52;5.33;;;3.77;;
11735;SDS011;5924;51.398;7.088;2023-03-21T16:57:23;4.53;;;4.07;;
11735;SDS011;5924;51.398;7.088;2023-03-21T16:59:53;5.37;;;3.30;;
11735;SDS011;5924;51.398;7.088;2023-03-21T17:02:20;4.97;;;3.30;;
11735;SDS011;5924;51.398;7.088;2023-03-21T17:04:47;3.20;;;3.00;;
11735;SDS011;5924;51.398;7.088;2023-03-21T17:07:13;4.13;;;3.30;;
11735;SDS011;5924;51.398;7.088;2023-03-21T17:09:39;3.37;;;3.27;;
11735;SDS011;5924;51.398;7.088;2023-03-21T17:12:11;3.80;;;3.60;;
11735;SDS011;5924;51.398;7.088;2023-03-21T17:14:38;6.43;;;3.40;;
11735;SDS011;5924;51.398;7.088;2023-03-21T17:17:05;3.90;;;3.50;;